URKAI UESS-UHMP
Flight info
| Callsign | URKAI |
|---|---|
| Flight time | 1h 3m |
| Altitude | 17000 |
| Route | DCT DOKEM G912 RESBU RESBU1L |
| Aircraft | TBM9/L-SDFGY/C |
Departure
| Time | 2026-04-21 03:53 |
|---|---|
| Airport | Cherskiy Airport (UESS) |
Arrival
| Time | 2026-04-21 04:56 |
|---|---|
| Airport | Pevek Airport (UHMP) |
| Time | Latitude | Longitude | Altitude | Speed | Heading |
|---|---|---|---|---|---|
| 2026-04-21 03:43 | 68.74568 | 161.32638 | 21 ft | 0 kts | 56° |
| 2026-04-21 03:50 | 68.74564 | 161.32672 | 21 ft | 5 kts | 155° |
| 2026-04-21 03:50 | 68.74529 | 161.32613 | 21 ft | 8 kts | 206° |
| 2026-04-21 03:50 | 68.74471 | 161.32528 | 20 ft | 12 kts | 231° |
| 2026-04-21 03:50 | 68.74502 | 161.32329 | 21 ft | 13 kts | 319° |
| 2026-04-21 03:51 | 68.74506 | 161.32316 | 20 ft | 0 kts | 294° |
| 2026-04-21 03:51 | 68.74508 | 161.32299 | 21 ft | 6 kts | 288° |
| 2026-04-21 03:52 | 68.74497 | 161.32279 | 20 ft | 5 kts | 97° |
| 2026-04-21 03:52 | 68.74495 | 161.32310 | 20 ft | 0 kts | 111° |
| 2026-04-21 03:52 | 68.74489 | 161.32344 | 19 ft | 9 kts | 117° |
| 2026-04-21 03:53 | 68.74391 | 161.32812 | 22 ft | 57 kts | 119° |
| 2026-04-21 03:53 | 68.74209 | 161.33656 | 22 ft | 96 kts | 118° |
| 2026-04-21 03:53 | 68.73803 | 161.35394 | 320 ft | 114 kts | 127° |
| 2026-04-21 03:53 | 68.73368 | 161.37186 | 905 ft | 109 kts | 116° |
| 2026-04-21 03:54 | 68.73279 | 161.39912 | 1589 ft | 117 kts | 73° |
| 2026-04-21 03:54 | 68.73496 | 161.41319 | 1901 ft | 119 kts | 56° |
| 2026-04-21 03:54 | 68.74034 | 161.42883 | 2372 ft | 100 kts | 39° |
| 2026-04-21 03:54 | 68.74573 | 161.44173 | 2121 ft | 106 kts | 42° |
| 2026-04-21 03:55 | 68.75174 | 161.45596 | 2268 ft | 119 kts | 40° |
| 2026-04-21 03:55 | 68.75715 | 161.47483 | 2666 ft | 132 kts | 58° |
| 2026-04-21 03:55 | 68.76289 | 161.49530 | 3140 ft | 136 kts | 44° |
| 2026-04-21 03:55 | 68.76723 | 161.51770 | 3705 ft | 139 kts | 83° |
| 2026-04-21 03:56 | 68.77012 | 161.54348 | 4124 ft | 143 kts | 60° |
| 2026-04-21 03:56 | 68.77422 | 161.56862 | 4696 ft | 144 kts | 65° |
| 2026-04-21 03:56 | 68.77802 | 161.59442 | 5267 ft | 145 kts | 66° |
| 2026-04-21 03:56 | 68.78177 | 161.62057 | 5800 ft | 148 kts | 65° |
| 2026-04-21 03:57 | 68.78555 | 161.64732 | 6323 ft | 151 kts | 65° |
| 2026-04-21 03:57 | 68.78936 | 161.67464 | 6850 ft | 153 kts | 65° |
| 2026-04-21 03:57 | 68.79320 | 161.70236 | 7344 ft | 155 kts | 65° |
| 2026-04-21 03:57 | 68.79699 | 161.73006 | 7835 ft | 157 kts | 65° |
| 2026-04-21 03:58 | 68.80098 | 161.75863 | 8258 ft | 166 kts | 64° |
| 2026-04-21 03:58 | 68.80541 | 161.79025 | 8486 ft | 183 kts | 65° |
| 2026-04-21 03:58 | 68.81002 | 161.82404 | 8800 ft | 194 kts | 64° |
| 2026-04-21 03:58 | 68.81497 | 161.85906 | 9242 ft | 196 kts | 64° |
| 2026-04-21 03:59 | 68.81990 | 161.89427 | 9706 ft | 198 kts | 64° |
| 2026-04-21 03:59 | 68.82481 | 161.93011 | 10155 ft | 200 kts | 64° |
| 2026-04-21 03:59 | 68.82999 | 161.96610 | 10576 ft | 201 kts | 62° |
| 2026-04-21 04:00 | 68.84029 | 162.03839 | 11397 ft | 205 kts | 63° |
| 2026-04-21 04:00 | 68.84539 | 162.07536 | 11813 ft | 206 kts | 63° |
| 2026-04-21 04:00 | 68.85055 | 162.11261 | 12240 ft | 208 kts | 63° |
| 2026-04-21 04:00 | 68.85574 | 162.15015 | 12664 ft | 209 kts | 62° |
| 2026-04-21 04:01 | 68.86095 | 162.18790 | 13084 ft | 211 kts | 62° |
| 2026-04-21 04:01 | 68.86621 | 162.22609 | 13444 ft | 217 kts | 62° |
| 2026-04-21 04:01 | 68.87191 | 162.26730 | 13379 ft | 237 kts | 63° |
| 2026-04-21 04:01 | 68.87787 | 162.31137 | 13375 ft | 249 kts | 64° |
| 2026-04-21 04:02 | 68.88399 | 162.35646 | 13376 ft | 257 kts | 64° |
| 2026-04-21 04:02 | 68.89037 | 162.40336 | 13368 ft | 262 kts | 64° |
| 2026-04-21 04:02 | 68.89682 | 162.45084 | 13367 ft | 265 kts | 64° |
| 2026-04-21 04:02 | 68.90334 | 162.49879 | 13395 ft | 265 kts | 64° |
| 2026-04-21 04:03 | 68.90976 | 162.54625 | 13682 ft | 258 kts | 63° |
| 2026-04-21 04:03 | 68.91595 | 162.59191 | 14068 ft | 250 kts | 63° |
| 2026-04-21 04:03 | 68.92204 | 162.63689 | 14328 ft | 248 kts | 63° |
| 2026-04-21 04:03 | 68.92812 | 162.68208 | 14572 ft | 249 kts | 63° |
| 2026-04-21 04:04 | 68.93408 | 162.72661 | 14820 ft | 250 kts | 63° |
| 2026-04-21 04:04 | 68.94015 | 162.77213 | 15077 ft | 251 kts | 63° |
| 2026-04-21 04:04 | 68.94622 | 162.81775 | 15329 ft | 252 kts | 63° |
| 2026-04-21 04:04 | 68.95231 | 162.86349 | 15591 ft | 252 kts | 63° |
| 2026-04-21 04:05 | 68.95841 | 162.90937 | 15850 ft | 253 kts | 63° |
| 2026-04-21 04:05 | 68.96448 | 162.95535 | 16117 ft | 254 kts | 63° |
| 2026-04-21 04:05 | 68.97056 | 163.00146 | 16378 ft | 254 kts | 63° |
| 2026-04-21 04:05 | 68.97663 | 163.04757 | 16648 ft | 255 kts | 63° |
| 2026-04-21 04:06 | 68.98272 | 163.09389 | 16919 ft | 254 kts | 63° |
| 2026-04-21 04:06 | 68.98878 | 163.14020 | 17194 ft | 254 kts | 62° |
| 2026-04-21 04:06 | 68.99488 | 163.18686 | 17358 ft | 260 kts | 63° |
| 2026-04-21 04:06 | 69.00119 | 163.23517 | 17364 ft | 270 kts | 63° |
| 2026-04-21 04:07 | 69.00766 | 163.28513 | 17367 ft | 278 kts | 63° |
| 2026-04-21 04:07 | 69.01421 | 163.33596 | 17368 ft | 284 kts | 64° |
| 2026-04-21 04:07 | 69.02097 | 163.38860 | 17367 ft | 290 kts | 64° |
| 2026-04-21 04:07 | 69.02785 | 163.44209 | 17374 ft | 295 kts | 64° |
| 2026-04-21 04:08 | 69.03480 | 163.49637 | 17374 ft | 297 kts | 64° |
| 2026-04-21 04:08 | 69.04174 | 163.55066 | 17371 ft | 296 kts | 64° |
| 2026-04-21 04:08 | 69.04867 | 163.60485 | 17365 ft | 296 kts | 64° |
| 2026-04-21 04:08 | 69.05555 | 163.65898 | 17367 ft | 295 kts | 64° |
| 2026-04-21 04:09 | 69.06243 | 163.71313 | 17369 ft | 295 kts | 64° |
| 2026-04-21 04:09 | 69.06925 | 163.76727 | 17365 ft | 295 kts | 64° |
| 2026-04-21 04:09 | 69.07608 | 163.82145 | 17364 ft | 294 kts | 64° |
| 2026-04-21 04:09 | 69.08285 | 163.87547 | 17372 ft | 294 kts | 64° |
| 2026-04-21 04:10 | 69.08964 | 163.92951 | 17370 ft | 294 kts | 64° |
| 2026-04-21 04:10 | 69.09628 | 163.98279 | 17368 ft | 293 kts | 64° |
| 2026-04-21 04:10 | 69.10301 | 164.03684 | 17372 ft | 294 kts | 64° |
| 2026-04-21 04:10 | 69.10972 | 164.09100 | 17372 ft | 295 kts | 64° |
| 2026-04-21 04:11 | 69.11643 | 164.14547 | 17375 ft | 295 kts | 64° |
| 2026-04-21 04:11 | 69.12314 | 164.19981 | 17377 ft | 295 kts | 64° |
| 2026-04-21 04:11 | 69.12983 | 164.25427 | 17374 ft | 295 kts | 64° |
| 2026-04-21 04:11 | 69.13651 | 164.30878 | 17376 ft | 296 kts | 64° |
| 2026-04-21 04:12 | 69.14317 | 164.36338 | 17380 ft | 295 kts | 64° |
| 2026-04-21 04:12 | 69.14980 | 164.41793 | 17380 ft | 296 kts | 64° |
| 2026-04-21 04:12 | 69.15642 | 164.47251 | 17380 ft | 295 kts | 64° |
| 2026-04-21 04:12 | 69.16301 | 164.52701 | 17380 ft | 294 kts | 64° |
| 2026-04-21 04:13 | 69.16958 | 164.58150 | 17387 ft | 294 kts | 64° |
| 2026-04-21 04:13 | 69.17612 | 164.63596 | 17387 ft | 294 kts | 65° |
| 2026-04-21 04:13 | 69.18257 | 164.68985 | 17382 ft | 295 kts | 65° |
| 2026-04-21 04:13 | 69.18912 | 164.74470 | 17386 ft | 296 kts | 65° |
| 2026-04-21 04:14 | 69.19563 | 164.79950 | 17389 ft | 295 kts | 65° |
| 2026-04-21 04:14 | 69.20211 | 164.85431 | 17388 ft | 295 kts | 65° |
| 2026-04-21 04:14 | 69.20860 | 164.90914 | 17384 ft | 295 kts | 65° |
| 2026-04-21 04:14 | 69.21507 | 164.96398 | 17384 ft | 295 kts | 65° |
| 2026-04-21 04:15 | 69.22151 | 165.01893 | 17388 ft | 295 kts | 65° |
| 2026-04-21 04:15 | 69.22793 | 165.07383 | 17391 ft | 295 kts | 65° |
| 2026-04-21 04:15 | 69.23436 | 165.12889 | 17388 ft | 296 kts | 65° |
| 2026-04-21 04:15 | 69.24075 | 165.18401 | 17392 ft | 295 kts | 65° |
| 2026-04-21 04:16 | 69.24713 | 165.23902 | 17388 ft | 296 kts | 65° |
| 2026-04-21 04:16 | 69.25350 | 165.29422 | 17395 ft | 296 kts | 65° |
| 2026-04-21 04:16 | 69.25984 | 165.34935 | 17392 ft | 295 kts | 65° |
| 2026-04-21 04:16 | 69.26609 | 165.40384 | 17393 ft | 295 kts | 65° |
| 2026-04-21 04:17 | 69.27248 | 165.45973 | 17392 ft | 296 kts | 65° |
| 2026-04-21 04:17 | 69.27872 | 165.51446 | 17391 ft | 296 kts | 65° |
| 2026-04-21 04:17 | 69.28499 | 165.56974 | 17391 ft | 295 kts | 66° |
| 2026-04-21 04:17 | 69.29125 | 165.62502 | 17395 ft | 296 kts | 66° |
| 2026-04-21 04:18 | 69.29748 | 165.68055 | 17398 ft | 296 kts | 66° |
| 2026-04-21 04:18 | 69.30373 | 165.73616 | 17396 ft | 295 kts | 66° |
| 2026-04-21 04:18 | 69.30995 | 165.79151 | 17390 ft | 295 kts | 66° |
| 2026-04-21 04:18 | 69.31612 | 165.84683 | 17396 ft | 295 kts | 66° |
| 2026-04-21 04:19 | 69.32227 | 165.90213 | 17398 ft | 295 kts | 66° |
| 2026-04-21 04:19 | 69.32833 | 165.95687 | 17398 ft | 295 kts | 66° |
| 2026-04-21 04:19 | 69.33445 | 166.01223 | 17393 ft | 294 kts | 66° |
| 2026-04-21 04:19 | 69.34058 | 166.06757 | 17396 ft | 294 kts | 66° |
| 2026-04-21 04:20 | 69.34693 | 166.12251 | 17396 ft | 293 kts | 65° |
| 2026-04-21 04:20 | 69.35329 | 166.17749 | 17399 ft | 293 kts | 66° |
| 2026-04-21 04:20 | 69.35955 | 166.23258 | 17399 ft | 294 kts | 66° |
| 2026-04-21 04:20 | 69.36581 | 166.28771 | 17397 ft | 293 kts | 65° |
| 2026-04-21 04:21 | 69.37207 | 166.34202 | 17398 ft | 294 kts | 66° |
| 2026-04-21 04:21 | 69.37815 | 166.39742 | 17400 ft | 294 kts | 67° |
| 2026-04-21 04:21 | 69.38430 | 166.45349 | 17392 ft | 293 kts | 66° |
| 2026-04-21 04:21 | 69.39046 | 166.50790 | 17391 ft | 293 kts | 66° |
| 2026-04-21 04:22 | 69.39667 | 166.56297 | 17395 ft | 293 kts | 66° |
| 2026-04-21 04:22 | 69.40279 | 166.61826 | 17394 ft | 293 kts | 66° |
| 2026-04-21 04:22 | 69.40895 | 166.67424 | 17394 ft | 293 kts | 66° |
| 2026-04-21 04:22 | 69.41496 | 166.72873 | 17392 ft | 293 kts | 66° |
| 2026-04-21 04:23 | 69.42104 | 166.78392 | 17395 ft | 293 kts | 67° |
| 2026-04-21 04:23 | 69.42709 | 166.83909 | 17392 ft | 293 kts | 67° |
| 2026-04-21 04:23 | 69.43311 | 166.89438 | 17391 ft | 289 kts | 67° |
| 2026-04-21 04:23 | 69.43891 | 166.94817 | 17190 ft | 282 kts | 67° |
| 2026-04-21 04:24 | 69.44472 | 167.00142 | 16863 ft | 281 kts | 67° |
| 2026-04-21 04:24 | 69.45052 | 167.05487 | 16430 ft | 284 kts | 67° |
| 2026-04-21 04:24 | 69.45627 | 167.10866 | 16006 ft | 284 kts | 68° |
| 2026-04-21 04:24 | 69.46202 | 167.16247 | 15583 ft | 283 kts | 68° |
| 2026-04-21 04:25 | 69.46775 | 167.21599 | 15167 ft | 282 kts | 68° |
| 2026-04-21 04:25 | 69.47337 | 167.26873 | 14762 ft | 280 kts | 68° |
| 2026-04-21 04:25 | 69.47901 | 167.32181 | 14353 ft | 278 kts | 68° |
| 2026-04-21 04:25 | 69.48460 | 167.37461 | 13919 ft | 277 kts | 69° |
| 2026-04-21 04:26 | 69.49015 | 167.42716 | 13464 ft | 275 kts | 69° |
| 2026-04-21 04:26 | 69.49561 | 167.47919 | 13063 ft | 273 kts | 69° |
| 2026-04-21 04:26 | 69.50101 | 167.53064 | 12728 ft | 269 kts | 69° |
| 2026-04-21 04:26 | 69.50632 | 167.58152 | 12407 ft | 265 kts | 69° |
| 2026-04-21 04:27 | 69.51157 | 167.63172 | 12140 ft | 262 kts | 69° |
| 2026-04-21 04:27 | 69.51666 | 167.68075 | 11874 ft | 260 kts | 69° |
| 2026-04-21 04:27 | 69.52175 | 167.73013 | 11602 ft | 258 kts | 69° |
| 2026-04-21 04:27 | 69.52680 | 167.77921 | 11337 ft | 257 kts | 69° |
| 2026-04-21 04:28 | 69.53184 | 167.82833 | 11002 ft | 258 kts | 70° |
| 2026-04-21 04:28 | 69.53688 | 167.87760 | 10670 ft | 258 kts | 70° |
| 2026-04-21 04:28 | 69.54193 | 167.92693 | 10300 ft | 259 kts | 70° |
| 2026-04-21 04:28 | 69.54697 | 167.97653 | 9876 ft | 259 kts | 70° |
| 2026-04-21 04:29 | 69.55194 | 168.02594 | 9447 ft | 258 kts | 70° |
| 2026-04-21 04:29 | 69.55690 | 168.07495 | 9081 ft | 256 kts | 70° |
| 2026-04-21 04:29 | 69.56179 | 168.12317 | 8705 ft | 254 kts | 70° |
| 2026-04-21 04:29 | 69.56664 | 168.17155 | 8354 ft | 252 kts | 71° |
| 2026-04-21 04:30 | 69.57145 | 168.21953 | 8019 ft | 249 kts | 71° |
| 2026-04-21 04:30 | 69.57619 | 168.26691 | 7699 ft | 246 kts | 71° |
| 2026-04-21 04:30 | 69.58087 | 168.31387 | 7398 ft | 244 kts | 71° |
| 2026-04-21 04:30 | 69.58472 | 168.36007 | 7379 ft | 233 kts | 73° |
| 2026-04-21 04:31 | 69.58844 | 168.40470 | 7375 ft | 228 kts | 73° |
| 2026-04-21 04:31 | 69.59213 | 168.44874 | 7233 ft | 230 kts | 73° |
| 2026-04-21 04:31 | 69.59579 | 168.49391 | 6971 ft | 234 kts | 74° |
| 2026-04-21 04:31 | 69.59946 | 168.53961 | 6712 ft | 236 kts | 74° |
| 2026-04-21 04:32 | 69.60318 | 168.58550 | 6439 ft | 237 kts | 74° |
| 2026-04-21 04:32 | 69.60691 | 168.63161 | 6161 ft | 237 kts | 74° |
| 2026-04-21 04:32 | 69.61062 | 168.67768 | 5891 ft | 237 kts | 74° |
| 2026-04-21 04:32 | 69.61423 | 168.72297 | 5622 ft | 235 kts | 74° |
| 2026-04-21 04:33 | 69.61793 | 168.76883 | 5347 ft | 231 kts | 74° |
| 2026-04-21 04:33 | 69.62145 | 168.81289 | 5070 ft | 227 kts | 75° |
| 2026-04-21 04:33 | 69.62494 | 168.85697 | 4778 ft | 224 kts | 75° |
| 2026-04-21 04:33 | 69.62840 | 168.90043 | 4496 ft | 222 kts | 75° |
| 2026-04-21 04:34 | 69.63178 | 168.94326 | 4406 ft | 215 kts | 75° |
| 2026-04-21 04:34 | 69.63496 | 168.98396 | 4399 ft | 209 kts | 75° |
| 2026-04-21 04:34 | 69.63815 | 169.02445 | 4400 ft | 205 kts | 75° |
| 2026-04-21 04:34 | 69.64124 | 169.06361 | 4821 ft | 195 kts | 74° |
| 2026-04-21 04:35 | 69.64416 | 169.10100 | 5422 ft | 189 kts | 73° |
| 2026-04-21 04:35 | 69.64703 | 169.13740 | 5991 ft | 185 kts | 73° |
| 2026-04-21 04:35 | 69.64980 | 169.17305 | 6592 ft | 181 kts | 73° |
| 2026-04-21 04:35 | 69.65254 | 169.20816 | 7149 ft | 179 kts | 72° |
| 2026-04-21 04:36 | 69.65531 | 169.24436 | 7361 ft | 197 kts | 73° |
| 2026-04-21 04:36 | 69.65832 | 169.28421 | 7378 ft | 211 kts | 74° |
| 2026-04-21 04:36 | 69.66143 | 169.32592 | 7383 ft | 213 kts | 73° |
| 2026-04-21 04:36 | 69.66465 | 169.36768 | 7368 ft | 216 kts | 73° |
| 2026-04-21 04:37 | 69.66788 | 169.41017 | 7373 ft | 219 kts | 73° |
| 2026-04-21 04:37 | 69.67063 | 169.45368 | 7370 ft | 225 kts | 83° |
| 2026-04-21 04:37 | 69.66895 | 169.49752 | 7369 ft | 209 kts | 101° |
| 2026-04-21 04:37 | 69.66418 | 169.53419 | 7350 ft | 185 kts | 109° |
| 2026-04-21 04:38 | 69.65945 | 169.56851 | 7240 ft | 182 kts | 108° |
| 2026-04-21 04:38 | 69.65488 | 169.60090 | 6962 ft | 168 kts | 108° |
| 2026-04-21 04:38 | 69.65064 | 169.63087 | 6683 ft | 165 kts | 107° |
| 2026-04-21 04:38 | 69.64624 | 169.66219 | 6408 ft | 172 kts | 108° |
| 2026-04-21 04:39 | 69.64163 | 169.69440 | 6132 ft | 175 kts | 109° |
| 2026-04-21 04:39 | 69.63700 | 169.72678 | 5856 ft | 176 kts | 109° |
| 2026-04-21 04:39 | 69.63236 | 169.75920 | 5590 ft | 175 kts | 109° |
| 2026-04-21 04:39 | 69.62773 | 169.79154 | 5322 ft | 175 kts | 109° |
| 2026-04-21 04:40 | 69.62311 | 169.82380 | 5053 ft | 174 kts | 109° |
| 2026-04-21 04:40 | 69.62007 | 169.84499 | 4860 ft | 173 kts | 109° |
| 2026-04-21 04:40 | 69.61551 | 169.87670 | 4666 ft | 168 kts | 109° |
| 2026-04-21 04:40 | 69.60944 | 169.91943 | 4594 ft | 181 kts | 109° |
| 2026-04-21 04:41 | 69.60447 | 169.95353 | 4466 ft | 188 kts | 110° |
| 2026-04-21 04:41 | 69.59944 | 169.98820 | 4409 ft | 188 kts | 110° |
| 2026-04-21 04:41 | 69.59608 | 170.01142 | 4409 ft | 186 kts | 110° |
| 2026-04-21 04:41 | 69.59115 | 170.04545 | 4409 ft | 184 kts | 110° |
| 2026-04-21 04:42 | 69.58625 | 170.07941 | 4407 ft | 184 kts | 109° |
| 2026-04-21 04:42 | 69.58140 | 170.11275 | 4404 ft | 184 kts | 110° |
| 2026-04-21 04:42 | 69.57648 | 170.14646 | 4402 ft | 183 kts | 110° |
| 2026-04-21 04:42 | 69.57155 | 170.18016 | 4401 ft | 183 kts | 110° |
| 2026-04-21 04:43 | 69.56663 | 170.21382 | 4401 ft | 183 kts | 110° |
| 2026-04-21 04:43 | 69.56181 | 170.24647 | 4390 ft | 170 kts | 110° |
| 2026-04-21 04:43 | 69.55743 | 170.27639 | 4371 ft | 157 kts | 109° |
| 2026-04-21 04:43 | 69.55329 | 170.30497 | 4356 ft | 155 kts | 109° |
| 2026-04-21 04:44 | 69.54905 | 170.33387 | 4301 ft | 157 kts | 109° |
| 2026-04-21 04:44 | 69.54483 | 170.36235 | 4286 ft | 152 kts | 109° |
| 2026-04-21 04:44 | 69.54076 | 170.38990 | 4256 ft | 149 kts | 109° |
| 2026-04-21 04:44 | 69.53676 | 170.41701 | 4195 ft | 148 kts | 109° |
| 2026-04-21 04:45 | 69.53285 | 170.44336 | 4137 ft | 143 kts | 109° |
| 2026-04-21 04:45 | 69.52892 | 170.46977 | 4056 ft | 141 kts | 110° |
| 2026-04-21 04:45 | 69.52569 | 170.49514 | 3949 ft | 135 kts | 97° |
| 2026-04-21 04:45 | 69.52541 | 170.52119 | 3828 ft | 129 kts | 75° |
| 2026-04-21 04:46 | 69.52831 | 170.54462 | 3711 ft | 123 kts | 53° |
| 2026-04-21 04:46 | 69.53374 | 170.56228 | 3587 ft | 115 kts | 31° |
| 2026-04-21 04:46 | 69.54078 | 170.57171 | 3452 ft | 110 kts | 8° |
| 2026-04-21 04:46 | 69.54827 | 170.57181 | 3319 ft | 107 kts | 345° |
| 2026-04-21 04:47 | 69.55491 | 170.56284 | 3191 ft | 106 kts | 322° |
| 2026-04-21 04:47 | 69.56130 | 170.55349 | 3058 ft | 108 kts | 0° |
| 2026-04-21 04:47 | 69.56872 | 170.55712 | 2933 ft | 108 kts | 5° |
| 2026-04-21 04:47 | 69.57607 | 170.56049 | 2815 ft | 108 kts | 7° |
| 2026-04-21 04:48 | 69.58320 | 170.56778 | 2684 ft | 110 kts | 24° |
| 2026-04-21 04:48 | 69.58962 | 170.57977 | 2551 ft | 109 kts | 28° |
| 2026-04-21 04:48 | 69.59572 | 170.59127 | 2497 ft | 103 kts | 28° |
| 2026-04-21 04:48 | 69.60167 | 170.60251 | 2418 ft | 101 kts | 28° |
| 2026-04-21 04:49 | 69.60747 | 170.61345 | 2329 ft | 101 kts | 28° |
| 2026-04-21 04:49 | 69.61335 | 170.62446 | 2238 ft | 101 kts | 28° |
| 2026-04-21 04:49 | 69.61927 | 170.63543 | 2148 ft | 101 kts | 28° |
| 2026-04-21 04:49 | 69.62515 | 170.64633 | 2115 ft | 94 kts | 28° |
| 2026-04-21 04:50 | 69.63002 | 170.65574 | 2107 ft | 82 kts | 27° |
| 2026-04-21 04:50 | 69.63493 | 170.66523 | 2105 ft | 88 kts | 28° |
| 2026-04-21 04:50 | 69.64005 | 170.67517 | 2109 ft | 91 kts | 28° |
| 2026-04-21 04:50 | 69.64568 | 170.68245 | 2102 ft | 86 kts | 355° |
| 2026-04-21 04:51 | 69.65157 | 170.68064 | 2102 ft | 84 kts | 348° |
| 2026-04-21 04:51 | 69.65724 | 170.67839 | 2099 ft | 82 kts | 347° |
| 2026-04-21 04:51 | 69.66290 | 170.67571 | 2098 ft | 82 kts | 346° |
| 2026-04-21 04:51 | 69.66849 | 170.67266 | 2095 ft | 83 kts | 345° |
| 2026-04-21 04:52 | 69.67413 | 170.66935 | 2096 ft | 83 kts | 344° |
| 2026-04-21 04:52 | 69.68003 | 170.66568 | 1995 ft | 90 kts | 345° |
| 2026-04-21 04:52 | 69.68632 | 170.66187 | 1876 ft | 94 kts | 345° |
| 2026-04-21 04:52 | 69.69274 | 170.65802 | 1771 ft | 95 kts | 346° |
| 2026-04-21 04:53 | 69.69924 | 170.65419 | 1662 ft | 95 kts | 346° |
| 2026-04-21 04:53 | 69.70552 | 170.65041 | 1538 ft | 90 kts | 345° |
| 2026-04-21 04:53 | 69.71158 | 170.64657 | 1383 ft | 89 kts | 345° |
| 2026-04-21 04:53 | 69.71752 | 170.64225 | 1225 ft | 88 kts | 342° |
| 2026-04-21 04:54 | 69.72329 | 170.63759 | 1117 ft | 85 kts | 343° |
| 2026-04-21 04:54 | 69.72870 | 170.63114 | 978 ft | 85 kts | 329° |
| 2026-04-21 04:54 | 69.73429 | 170.62635 | 882 ft | 84 kts | 342° |
| 2026-04-21 04:54 | 69.74024 | 170.62375 | 739 ft | 89 kts | 353° |
| 2026-04-21 04:55 | 69.74645 | 170.62157 | 594 ft | 90 kts | 347° |
| 2026-04-21 04:55 | 69.75254 | 170.61750 | 409 ft | 89 kts | 344° |
| 2026-04-21 04:55 | 69.75840 | 170.61327 | 265 ft | 86 kts | 343° |
| 2026-04-21 04:55 | 69.76421 | 170.60952 | 159 ft | 82 kts | 346° |
| 2026-04-21 04:56 | 69.76961 | 170.60591 | 86 ft | 78 kts | 345° |
| 2026-04-21 04:56 | 69.77476 | 170.60243 | 23 ft | 71 kts | 343° |
| 2026-04-21 04:56 | 69.77892 | 170.59960 | 22 ft | 53 kts | 347° |
| 2026-04-21 04:56 | 69.78168 | 170.59779 | 24 ft | 29 kts | 345° |
| 2026-04-21 04:57 | 69.78353 | 170.59688 | 22 ft | 26 kts | 347° |
| 2026-04-21 04:57 | 69.78521 | 170.59560 | 21 ft | 24 kts | 347° |
| 2026-04-21 04:57 | 69.78668 | 170.59439 | 23 ft | 20 kts | 351° |
| 2026-04-21 04:57 | 69.78784 | 170.59391 | 24 ft | 13 kts | 24° |
| 2026-04-21 04:58 | 69.78822 | 170.59641 | 23 ft | 15 kts | 78° |
| 2026-04-21 04:58 | 69.78844 | 170.59877 | 23 ft | 7 kts | 73° |
| 2026-04-21 04:58 | 69.78835 | 170.60013 | 23 ft | 7 kts | 140° |
| 2026-04-21 04:58 | 69.78790 | 170.60094 | 23 ft | 8 kts | 174° |
| 2026-04-21 04:59 | 69.78772 | 170.60103 | 23 ft | 0 kts | 163° |
| 2026-04-21 04:59 | 69.78762 | 170.60114 | 23 ft | 5 kts | 157° |
| 2026-04-21 04:59 | 69.78749 | 170.60134 | 23 ft | 7 kts | 148° |
| 2026-04-21 04:59 | 69.78730 | 170.60180 | 23 ft | 0 kts | 51° |